COOK1: Arkansas River Nr Coolidge, KS

                                SHEF ID:       COOK1     ARKANSAS R NR COOLIDGE, KS
STATION TYPE:
Regulating: Stage = 8.00, Flow = 2050

PRECIP STAGE STAGE(2) RIV-FLOW WTR-TEMP CONDUCT BAT-LOAD
in ft ft cfs F umho/cm volt
Ccp-Rev Ccp-Rev Ccp-Rev Ccp-Rev Ccp-Rev Ccp-Rev Ccp-Rev
(America/Chicago)
06/17 00:00 0.00 2.55 2.63 58 75.56 6043 13.00
06/17 01:00 0.00 2.55 2.64 58 74.43 6053 12.95
06/17 02:00 0.00 2.54 2.63 57 73.49 6061 12.95
06/17 03:00 0.00 2.55 2.63 58 72.64 6064 12.89
06/17 04:00 0.00 2.54 2.64 57 71.85 6079 12.89
06/17 05:00 0.00 2.56 2.62 59 71.28 6075 12.89
06/17 06:00 0.00 2.56 2.62 59 70.88 6073 12.89
06/17 07:00 0.00 2.55 2.61 58 70.50 6077 12.89
06/17 08:00 0.00 2.55 2.63 58 70.23 6075 12.89
06/17 09:00 0.00 2.53 2.61 56 70.43 6070 13.00
06/17 10:00 0.00 2.53 2.61 56 72.19 6091 13.36
06/17 11:00 0.00 2.54 2.62 57 74.30 6113 13.53
06/17 12:00 0.00 2.54 2.63 57 76.77 6127 13.71
06/17 13:00 0.00 2.54 2.63 57 79.45 6129 13.59
06/17 14:00 0.00 2.55 2.63 58 81.50 6127 13.65
06/17 15:00 0.00 2.53 2.62 56 82.76 6122 13.65
06/17 16:00 0.00 2.54 2.61 57 81.77 6102 13.36
06/17 17:00 0.00 2.54 2.63 57 80.20 6075 13.18
06/17 18:00 0.00 2.53 2.62 56 80.31 6064 13.30
06/17 19:00 0.00 2.53 2.63 56 79.72 6070 13.18
06/17 20:00 0.00 2.53 2.60 56 78.15 6079 13.12
06/17 21:00 0.00 2.52 2.60 55 76.37 6082 13.07
06/17 22:00 0.00 2.50 2.59 54 74.95 6097 13.00
06/17 23:00 ---- ---- ---- ---- ---- ---- ----
Data processed at Tue 18Jun2024 04:30 GMT

Parsing this webpage?

Checkout our new Data API! CWMSDataAPI (CDA)

Timeseries IDs (TSIDs)

TSIDs used from left to right in the data table
COOL.Precip-Inc.Total.1Hour.1Hour.Ccp-Rev
COOL.Stage.Inst.1Hour.0.Ccp-Rev
COOL.Stage-Alt.Inst.1Hour.0.Ccp-Rev
COOL.Flow.Inst.1Hour.0.Ccp-Rev
COOL.Temp-Water.Inst.1Hour.0.Ccp-Rev
COOL.Cond.Inst.1Hour.0.Ccp-Rev
COOL.Volt-Battery Load.Inst.1Hour.0.Ccp-Rev

                            

All information presented herein is the property of the government of the United States of America and may be revised or deleted at any time without prior notice. Dissemination of this information without the expressed written consent of the Public Affairs Office, Tulsa District U.S. Army Corps of Engineers is strictly prohibited. These data are gathered electronically and, as presented, have NOT undergone any form of quality control. These data are NOT guaranteed to be valid or correct.